createdAt,value
2023-01-25T00:03:06.873Z,1029.89
2023-01-25T00:08:13.984Z,1030.03
2023-01-25T00:13:21.105Z,1029.90
2023-01-25T00:18:28.322Z,1030.00
2023-01-25T00:23:35.464Z,1030.13
2023-01-25T00:28:42.673Z,1030.16
2023-01-25T00:33:49.886Z,1030.10
2023-01-25T00:38:57.137Z,1029.96
2023-01-25T00:44:04.420Z,1030.23
2023-01-25T00:49:11.655Z,1030.03
2023-01-25T00:54:18.793Z,1030.11
2023-01-25T00:59:26.023Z,1030.08
2023-01-25T01:04:33.326Z,1030.12
2023-01-25T01:09:40.439Z,1030.04
2023-01-25T01:14:47.844Z,1029.83
2023-01-25T01:19:55.152Z,1029.88
2023-01-25T01:25:02.410Z,1029.92
2023-01-25T01:30:09.623Z,1029.92
2023-01-25T01:35:16.865Z,1029.91
2023-01-25T01:40:24.092Z,1029.88
2023-01-25T01:45:31.383Z,1029.88
2023-01-25T01:50:38.561Z,1029.89
2023-01-25T01:55:45.715Z,1029.85
2023-01-25T02:00:52.922Z,1029.81
2023-01-25T02:06:00.133Z,1029.84
2023-01-25T02:11:07.294Z,1029.87
2023-01-25T02:16:14.500Z,1029.84
2023-01-25T02:21:21.669Z,1029.83
2023-01-25T02:26:28.837Z,1029.89
2023-01-25T02:31:36.107Z,1029.81
2023-01-25T02:36:43.420Z,1029.93
2023-01-25T02:41:50.687Z,1029.88
2023-01-25T02:46:57.865Z,1029.86
2023-01-25T02:52:05.082Z,1029.86
2023-01-25T02:57:12.232Z,1029.71
2023-01-25T03:02:19.449Z,1029.74
2023-01-25T03:07:26.630Z,1029.61
2023-01-25T03:12:33.772Z,1029.61
2023-01-25T03:17:40.951Z,1029.61
2023-01-25T03:22:48.176Z,1029.53
2023-01-25T03:27:55.371Z,1029.50
2023-01-25T03:33:02.646Z,1029.53
2023-01-25T03:38:09.849Z,1029.44
2023-01-25T03:43:17.005Z,1029.42
2023-01-25T03:48:24.205Z,1029.33
2023-01-25T03:53:31.432Z,1029.37
2023-01-25T03:58:38.587Z,1029.29
2023-01-25T04:03:45.751Z,1029.24
2023-01-25T04:08:52.920Z,1029.26
2023-01-25T04:14:00.115Z,1029.28
2023-01-25T04:19:07.309Z,1029.25
2023-01-25T04:24:14.536Z,1029.22
2023-01-25T04:29:31.672Z,1029.22
2023-01-25T04:34:28.936Z,1029.19
2023-01-25T04:39:36.153Z,1029.18
2023-01-25T04:44:43.332Z,1029.15
2023-01-25T04:49:50.499Z,1029.11
2023-01-25T04:54:57.773Z,1029.10
2023-01-25T05:00:04.981Z,1029.12
2023-01-25T05:05:12.377Z,1029.05
2023-01-25T05:10:19.476Z,1029.08
2023-01-25T05:15:26.645Z,1028.97
2023-01-25T05:20:33.833Z,1028.98
2023-01-25T05:25:41.052Z,1028.94
2023-01-25T05:30:48.292Z,1028.90
2023-01-25T05:35:55.480Z,1028.87
2023-01-25T05:41:02.707Z,1028.79
2023-01-25T05:46:10.030Z,1028.76
2023-01-25T05:51:17.236Z,1028.73
2023-01-25T05:56:24.424Z,1028.65
2023-01-25T06:01:31.587Z,1028.74
2023-01-25T06:06:38.769Z,1028.73
2023-01-25T06:11:45.929Z,1028.80
2023-01-25T06:16:53.105Z,1028.79
2023-01-25T06:22:00.323Z,1028.79
2023-01-25T06:27:07.481Z,1028.74
2023-01-25T06:32:14.771Z,1028.79
2023-01-25T06:37:21.873Z,1028.80
2023-01-25T06:42:29.097Z,1028.92
2023-01-25T06:47:36.251Z,1028.93
2023-01-25T06:52:43.464Z,1028.95
2023-01-25T06:57:50.782Z,1028.91
2023-01-25T07:02:57.980Z,1028.89
2023-01-25T07:08:05.094Z,1028.87
2023-01-25T07:13:12.520Z,1028.89
2023-01-25T07:18:19.680Z,1028.86
2023-01-25T07:23:26.935Z,1028.78
2023-01-25T07:28:34.329Z,1028.73
2023-01-25T07:33:41.491Z,1028.74
2023-01-25T07:38:48.693Z,1028.70
2023-01-25T07:43:55.935Z,1028.66
2023-01-25T07:49:03.096Z,1028.77
2023-01-25T07:54:10.269Z,1028.69
2023-01-25T07:59:17.796Z,1028.67
2023-01-25T08:04:24.937Z,1028.67
2023-01-25T08:09:32.230Z,1028.65
2023-01-25T08:14:39.444Z,1028.62
2023-01-25T08:19:46.566Z,1028.59
2023-01-25T08:24:53.757Z,1028.56
2023-01-25T08:30:00.972Z,1028.54
2023-01-25T08:35:09.428Z,1028.43
2023-01-25T08:40:16.219Z,1028.36
2023-01-25T08:45:23.400Z,1028.29
2023-01-25T08:50:30.587Z,1028.25
2023-01-25T08:55:37.779Z,1028.20
2023-01-25T09:00:44.992Z,1028.12
2023-01-25T09:05:52.216Z,1028.07
2023-01-25T09:10:59.365Z,1028.03
2023-01-25T09:16:06.651Z,1028.00
2023-01-25T09:21:13.861Z,1027.95
2023-01-25T09:26:21.055Z,1027.91
2023-01-25T09:31:28.470Z,1027.92
2023-01-25T09:36:35.429Z,1027.89
2023-01-25T09:41:42.662Z,1027.78
2023-01-25T09:46:49.858Z,1027.73
2023-01-25T09:51:56.994Z,1027.75
2023-01-25T09:57:04.181Z,1027.76
2023-01-25T10:02:11.421Z,1027.68
2023-01-25T10:07:18.718Z,1027.66
2023-01-25T10:12:25.968Z,1027.65
2023-01-25T10:17:33.142Z,1027.63
2023-01-25T10:22:40.299Z,1027.64
2023-01-25T10:27:47.511Z,1027.47
2023-01-25T10:32:56.094Z,1027.32
2023-01-25T10:38:01.925Z,1027.29
2023-01-25T10:43:09.284Z,1027.29
2023-01-25T10:48:16.523Z,1027.29
2023-01-25T10:53:23.732Z,1027.30
2023-01-25T10:58:30.902Z,1027.24
2023-01-25T11:03:38.062Z,1027.18
2023-01-25T11:08:45.229Z,1027.11
2023-01-25T11:13:52.439Z,1027.07
2023-01-25T11:18:59.662Z,1027.00
2023-01-25T11:24:06.965Z,1026.96
2023-01-25T11:29:14.020Z,1026.95
2023-01-25T11:34:21.260Z,1026.87
2023-01-25T11:39:28.373Z,1026.82
2023-01-25T11:44:35.584Z,1026.79
2023-01-25T11:49:42.794Z,1026.71
2023-01-25T11:54:49.929Z,1026.56
2023-01-25T11:59:57.133Z,1026.47
2023-01-25T12:05:12.725Z,1026.43
2023-01-25T12:10:11.846Z,1026.34
2023-01-25T12:15:18.747Z,1026.20
2023-01-25T12:20:26.057Z,1026.16
2023-01-25T12:25:33.185Z,1026.05
2023-01-25T12:30:40.512Z,1026.02
2023-01-25T12:35:47.754Z,1025.97
2023-01-25T12:40:54.946Z,1025.89
2023-01-25T12:46:02.232Z,1025.86
2023-01-25T12:51:09.521Z,1025.83
2023-01-25T12:56:16.741Z,1025.64
2023-01-25T13:01:23.951Z,1025.64
2023-01-25T13:06:31.141Z,1025.61
2023-01-25T13:11:38.295Z,1025.58
2023-01-25T13:16:45.481Z,1025.56
2023-01-25T13:21:52.738Z,1025.43
2023-01-25T13:26:59.934Z,1025.33
2023-01-25T13:32:07.150Z,1025.33
2023-01-25T13:37:14.344Z,1025.35
2023-01-25T13:42:21.502Z,1025.38
2023-01-25T13:47:28.681Z,1025.36
2023-01-25T13:52:35.921Z,1025.33
2023-01-25T13:57:43.059Z,1025.28
2023-01-25T14:02:50.264Z,1025.28
2023-01-25T14:07:57.437Z,1025.23
2023-01-25T14:13:04.599Z,1025.19
2023-01-25T14:18:11.881Z,1025.16
2023-01-25T14:23:19.089Z,1025.09
2023-01-25T14:28:26.280Z,1025.04
2023-01-25T14:33:33.558Z,1025.05
2023-01-25T14:38:40.865Z,1025.02
2023-01-25T14:43:48.046Z,1025.06
2023-01-25T14:48:55.236Z,1024.99
2023-01-25T14:54:02.471Z,1024.88
2023-01-25T14:59:09.584Z,1024.84
2023-01-25T15:04:16.758Z,1024.84
2023-01-25T15:09:24.008Z,1024.82
2023-01-25T15:14:31.159Z,1024.74
2023-01-25T15:19:38.328Z,1024.77
2023-01-25T15:24:50.306Z,1024.71
2023-01-25T15:29:52.691Z,1024.73
2023-01-25T15:34:59.928Z,1024.70
2023-01-25T15:40:07.484Z,1024.67
2023-01-25T15:45:14.330Z,1024.64
2023-01-25T15:50:21.775Z,1024.55
2023-01-25T15:55:29.162Z,1024.52
2023-01-25T16:00:36.386Z,1024.49
2023-01-25T16:05:43.589Z,1024.45
2023-01-25T16:10:50.889Z,1024.45
2023-01-25T16:15:58.109Z,1024.44
2023-01-25T16:21:05.347Z,1024.41
2023-01-25T16:26:12.944Z,1024.38
2023-01-25T16:31:32.018Z,1024.33
2023-01-25T16:36:27.842Z,1024.26
2023-01-25T16:41:36.085Z,1024.26
2023-01-25T16:46:43.482Z,1024.20
2023-01-25T16:51:51.187Z,1024.28
2023-01-25T16:56:59.933Z,1024.23
2023-01-25T17:02:06.155Z,1024.17
2023-01-25T17:07:13.626Z,1024.13
2023-01-25T17:12:21.277Z,1024.07
2023-01-25T17:17:28.855Z,1023.98
2023-01-25T17:22:36.670Z,1023.94
2023-01-25T17:27:44.426Z,1023.88
2023-01-25T17:32:51.971Z,1023.77
2023-01-25T17:37:59.528Z,1023.64
2023-01-25T17:43:07.150Z,1023.60
2023-01-25T17:48:14.949Z,1023.67
2023-01-25T17:53:22.565Z,1023.68
2023-01-25T17:58:30.207Z,1023.57
2023-01-25T18:03:37.589Z,1023.44
2023-01-25T18:08:44.862Z,1023.38
2023-01-25T18:13:52.442Z,1023.35
2023-01-25T18:18:59.975Z,1023.35
2023-01-25T18:24:07.513Z,1023.26
2023-01-25T18:29:15.172Z,1023.25
2023-01-25T18:34:22.758Z,1023.17
2023-01-25T18:39:30.487Z,1023.19
2023-01-25T18:44:38.116Z,1023.14
2023-01-25T18:49:46.232Z,1023.02
2023-01-25T18:54:53.428Z,1022.95
2023-01-25T19:00:00.972Z,1022.90
2023-01-25T19:05:09.204Z,1022.87
2023-01-25T19:10:16.259Z,1022.72
2023-01-25T19:15:23.799Z,1022.68
2023-01-25T19:20:31.401Z,1022.60
2023-01-25T19:25:38.964Z,1022.58
2023-01-25T19:30:47.831Z,1022.53
2023-01-25T19:35:55.681Z,1022.54
2023-01-25T19:41:04.302Z,1022.51
2023-01-25T19:46:12.074Z,1022.48
2023-01-25T19:51:20.558Z,1022.40
2023-01-25T19:56:28.174Z,1022.37
2023-01-25T20:01:36.067Z,1022.26
2023-01-25T20:06:44.635Z,1022.24
2023-01-25T20:11:52.065Z,1022.24
2023-01-25T20:16:59.660Z,1022.20
2023-01-25T20:22:07.265Z,1022.13
2023-01-25T20:27:14.883Z,1022.09
2023-01-25T20:32:32.299Z,1022.03
2023-01-25T20:37:30.177Z,1021.92
2023-01-25T20:42:37.832Z,1021.86
2023-01-25T20:47:45.467Z,1021.86
2023-01-25T20:52:53.057Z,1021.83
2023-01-25T20:58:00.479Z,1021.84
2023-01-25T21:03:08.014Z,1021.89
2023-01-25T21:08:15.599Z,1021.82
2023-01-25T21:13:23.307Z,1021.76
2023-01-25T21:18:30.853Z,1021.69
2023-01-25T21:23:38.144Z,1021.71
2023-01-25T21:28:45.342Z,1021.64
2023-01-25T21:33:52.663Z,1021.62
2023-01-25T21:39:01.316Z,1021.58
2023-01-25T21:44:08.637Z,1021.52
2023-01-25T21:49:16.127Z,1021.49
2023-01-25T21:54:23.476Z,1021.48
2023-01-25T21:59:30.669Z,1021.42
2023-01-25T22:04:37.835Z,1021.37
2023-01-25T22:09:44.999Z,1021.39
2023-01-25T22:14:52.195Z,1021.44
2023-01-25T22:19:59.477Z,1021.38
2023-01-25T22:25:06.668Z,1021.30
2023-01-25T22:30:14.064Z,1021.22
2023-01-25T22:35:21.054Z,1021.17
2023-01-25T22:40:28.203Z,1021.14
2023-01-25T22:45:35.397Z,1021.12
2023-01-25T22:50:42.685Z,1021.16
2023-01-25T22:55:49.859Z,1021.08
2023-01-25T23:00:57.051Z,1021.01
2023-01-25T23:06:04.322Z,1021.00
2023-01-25T23:11:11.527Z,1020.94
2023-01-25T23:16:18.791Z,1020.88
2023-01-25T23:21:26.017Z,1020.80
2023-01-25T23:26:33.178Z,1020.74
2023-01-25T23:31:40.479Z,1020.65
2023-01-25T23:36:47.573Z,1020.62
2023-01-25T23:41:54.722Z,1020.58
2023-01-25T23:47:01.906Z,1020.57
2023-01-25T23:52:09.153Z,1020.48
2023-01-25T23:57:16.285Z,1020.44
